sensor_id;sensor_type;location;lat;lon;timestamp;P1;durP1;ratioP1;P2;durP2;ratioP2
51485;SDS011;37565;51.352;6.412;2023-06-22T20:13:18;6.40;;;3.88;;
51485;SDS011;37565;51.352;6.412;2023-06-22T20:15:48;9.50;;;3.75;;
51485;SDS011;37565;51.352;6.412;2023-06-22T20:18:17;5.72;;;3.92;;
51485;SDS011;37565;51.352;6.412;2023-06-22T20:20:45;4.65;;;3.78;;
51485;SDS011;37565;51.352;6.412;2023-06-22T20:23:17;4.82;;;4.20;;
51485;SDS011;37565;51.352;6.412;2023-06-22T20:25:46;13.70;;;4.53;;
51485;SDS011;37565;51.352;6.412;2023-06-22T20:28:15;5.03;;;4.30;;
51485;SDS011;37565;51.352;6.412;2023-06-22T20:31:00;9.30;;;5.00;;
51485;SDS011;37565;51.352;6.412;2023-06-22T20:33:28;5.13;;;4.63;;
51485;SDS011;37565;51.352;6.412;2023-06-22T20:35:57;5.57;;;4.80;;
51485;SDS011;37565;51.352;6.412;2023-06-22T20:38:25;8.15;;;5.80;;
51485;SDS011;37565;51.352;6.412;2023-06-22T20:40:55;6.00;;;5.30;;
51485;SDS011;37565;51.352;6.412;2023-06-22T20:43:24;7.13;;;5.55;;
51485;SDS011;37565;51.352;6.412;2023-06-22T20:45:53;7.07;;;5.90;;
51485;SDS011;37565;51.352;6.412;2023-06-22T20:48:21;7.28;;;6.57;;
51485;SDS011;37565;51.352;6.412;2023-06-22T20:51:04;7.32;;;6.32;;
51485;SDS011;37565;51.352;6.412;2023-06-22T20:53:32;10.15;;;7.03;;
51485;SDS011;37565;51.352;6.412;2023-06-22T20:56:00;9.15;;;7.70;;
51485;SDS011;37565;51.352;6.412;2023-06-22T20:58:29;8.48;;;6.82;;
51485;SDS011;37565;51.352;6.412;2023-06-22T21:00:57;13.85;;;9.13;;
51485;SDS011;37565;51.352;6.412;2023-06-22T21:03:27;15.20;;;8.93;;
51485;SDS011;37565;51.352;6.412;2023-06-22T21:05:55;15.07;;;10.30;;
51485;SDS011;37565;51.352;6.412;2023-06-22T21:08:23;14.18;;;9.80;;
51485;SDS011;37565;51.352;6.412;2023-06-22T21:10:52;19.15;;;13.50;;
51485;SDS011;37565;51.352;6.412;2023-06-22T21:13:20;26.42;;;12.25;;
51485;SDS011;37565;51.352;6.412;2023-06-22T21:15:49;28.75;;;12.50;;
51485;SDS011;37565;51.352;6.412;2023-06-22T21:18:17;15.00;;;11.98;;
51485;SDS011;37565;51.352;6.412;2023-06-22T21:20:45;14.60;;;11.95;;
51485;SDS011;37565;51.352;6.412;2023-06-22T21:23:13;18.00;;;11.95;;
51485;SDS011;37565;51.352;6.412;2023-06-22T21:25:41;14.32;;;10.95;;
51485;SDS011;37565;51.352;6.412;2023-06-22T21:28:09;16.95;;;12.25;;
51485;SDS011;37565;51.352;6.412;2023-06-22T21:30:37;22.38;;;15.02;;
51485;SDS011;37565;51.352;6.412;2023-06-22T21:33:06;24.33;;;16.20;;
51485;SDS011;37565;51.352;6.412;2023-06-22T21:35:34;27.55;;;16.60;;
51485;SDS011;37565;51.352;6.412;2023-06-22T21:38:02;23.73;;;17.13;;
51485;SDS011;37565;51.352;6.412;2023-06-22T21:40:30;24.48;;;17.73;;
51485;SDS011;37565;51.352;6.412;2023-06-22T21:42:58;27.27;;;18.05;;
51485;SDS011;37565;51.352;6.412;2023-06-22T21:45:29;23.38;;;17.52;;
51485;SDS011;37565;51.352;6.412;2023-06-22T21:47:58;22.83;;;17.48;;
51485;SDS011;37565;51.352;6.412;2023-06-22T21:50:27;23.15;;;17.83;;
51485;SDS011;37565;51.352;6.412;2023-06-22T21:52:55;31.92;;;18.88;;
51485;SDS011;37565;51.352;6.412;2023-06-22T21:55:23;27.58;;;18.27;;
51485;SDS011;37565;51.352;6.412;2023-06-22T21:57:51;25.95;;;18.70;;
51485;SDS011;37565;51.352;6.412;2023-06-22T22:00:19;26.92;;;19.58;;
51485;SDS011;37565;51.352;6.412;2023-06-22T22:02:47;25.55;;;18.45;;
51485;SDS011;37565;51.352;6.412;2023-06-22T22:05:16;27.42;;;20.02;;
51485;SDS011;37565;51.352;6.412;2023-06-22T22:07:46;19.73;;;14.07;;
51485;SDS011;37565;51.352;6.412;2023-06-22T22:10:14;9.05;;;8.10;;
51485;SDS011;37565;51.352;6.412;2023-06-22T22:12:42;12.98;;;7.55;;
51485;SDS011;37565;51.352;6.412;2023-06-22T22:15:10;10.35;;;9.05;;
51485;SDS011;37565;51.352;6.412;2023-06-22T22:17:38;12.02;;;9.38;;
51485;SDS011;37565;51.352;6.412;2023-06-22T22:20:07;11.02;;;8.25;;
51485;SDS011;37565;51.352;6.412;2023-06-22T22:22:35;14.18;;;8.15;;
51485;SDS011;37565;51.352;6.412;2023-06-22T22:25:05;9.30;;;7.57;;
51485;SDS011;37565;51.352;6.412;2023-06-22T22:27:34;11.35;;;8.05;;
51485;SDS011;37565;51.352;6.412;2023-06-22T22:30:02;11.57;;;8.30;;
51485;SDS011;37565;51.352;6.412;2023-06-22T22:32:31;9.23;;;7.22;;
